Time;durP1;ratioP1;P1;durP2;ratioP2;P2;SDS_P1;SDS_P2;PMS_P1;PMS_P2;Temp;Humidity;BMP_temperature;BMP_pressure;BME280_temperature;BME280_humidity;BME280_pressure;Samples;Min_cycle;Max_cycle;Signal;HPM_P1;HPM_P2
2022/01/07 00:00:04;;;;;;;;;;;;;;;;;;5072201;28;20399;-65
2022/01/07 00:02:29;;;;;;;;;;;;;;;;;;5080705;28;19912;-66
2022/01/07 00:04:55;;;;;;;;;;;;;;;;;;5074325;28;19908;-66
2022/01/07 00:07:21;;;;;;;;;;;;;;;;;;5092324;28;20374;-65
2022/01/07 00:09:47;;;;;;;;;;;;;;;;;;5072029;28;19961;-66
2022/01/07 00:12:15;;;;;;;;;;;;;;;;;;5072666;28;20377;-66
2022/01/07 00:14:41;;;;;;;;;;;;;;;;;;5080448;28;19916;-66
2022/01/07 00:17:07;;;;;;;;;;;;;;;;;;5081614;28;20308;-66
2022/01/07 00:19:32;;;;;;;;;;;;;;;;;;5070589;28;20003;-66
2022/01/07 00:21:58;;;;;;;;;;;;;;;;;;5070420;28;19909;-65
2022/01/07 00:24:24;;;;;;;;;;;;;;;;;;5071693;28;19919;-65
2022/01/07 00:26:50;;;;;;;;;;;;;;;;;;5071406;28;20230;-65
2022/01/07 00:29:16;;;;;;;;;;;;;;;;;;5071363;28;19917;-65
2022/01/07 00:31:42;;;;;;;;;;;;;;;;;;5069893;28;20030;-65
2022/01/07 00:34:08;;;;;;;;;;;;;;;;;;5071001;28;19916;-65
2022/01/07 00:36:34;;;;;;;;;;;;;;;;;;5056377;28;19915;-65
2022/01/07 00:38:59;;;;;;;;;;;;;;;;;;5053875;28;19916;-68
2022/01/07 00:41:26;;;;;;;;;;;;;;;;;;5053638;28;19912;-65
2022/01/07 00:43:52;;;;;;;;;;;;;;;;;;5053405;28;19905;-64
2022/01/07 00:46:19;;;;;;;;;;;;;;;;;;5053826;28;20266;-64
2022/01/07 00:48:45;;;;;;;;;;;;;;;;;;5053792;28;20323;-64
2022/01/07 00:51:10;;;;;;;;;;;;;;;;;;5052228;28;19909;-64
2022/01/07 00:53:36;;;;;;;;;;;;;;;;;;5053465;28;19909;-64
2022/01/07 00:56:02;;;;;;;;;;;;;;;;;;5053714;28;19981;-65
2022/01/07 00:58:28;;;;;;;;;;;;;;;;;;5052575;28;19955;-65
2022/01/07 01:00:54;;;;;;;;;;;;;;;;;;5053627;28;19981;-65
2022/01/07 01:03:20;;;;;;;;;;;;;;;;;;5052682;28;19909;-65
2022/01/07 01:05:46;;;;;;;;;;;;;;;;;;5053399;28;19909;-64
2022/01/07 01:08:12;;;;;;;;;;;;;;;;;;5052041;28;19908;-62
2022/01/07 01:10:38;;;;;;;;;;;;;;;;;;5053378;28;20055;-66
2022/01/07 01:13:04;;;;;;;;;;;;;;;;;;5053169;28;19908;-65
2022/01/07 01:15:29;;;;;;;;;;;;;;;;;;5053442;28;19913;-65
2022/01/07 01:17:55;;;;;;;;;;;;;;;;;;5053445;28;19915;-64
2022/01/07 01:20:21;;;;;;;;;;;;;;;;;;5053537;28;20343;-64
2022/01/07 01:22:47;;;;;;;;;;;;;;;;;;5052932;28;20297;-65
2022/01/07 01:25:13;;;;;;;;;;;;;;;;;;5053572;28;19915;-65
2022/01/07 01:27:42;;;;;;;;;;;;;;;;;;5073954;22;19924;-70
2022/01/07 01:30:08;;;;;;;;;;;;;;;;;;5096878;28;19920;-70
2022/01/07 01:32:34;;;;;;;;;;;;;;;;;;5114284;28;19908;-70
2022/01/07 01:35:00;;;;;;;;;;;;;;;;;;5096668;28;19916;-70
2022/01/07 01:37:26;;;;;;;;;;;;;;;;;;5096535;28;19907;-70
2022/01/07 01:39:51;;;;;;;;;;;;;;;;;;5096605;28;19910;-70
2022/01/07 01:42:17;;;;;;;;;;;;;;;;;;5096625;28;19908;-70
2022/01/07 01:44:43;;;;;;;;;;;;;;;;;;5114362;28;20053;-70
2022/01/07 01:47:09;;;;;;;;;;;;;;;;;;5096438;28;19908;-69
2022/01/07 01:49:35;;;;;;;;;;;;;;;;;;5096216;28;19908;-70
2022/01/07 01:52:01;;;;;;;;;;;;;;;;;;5096432;28;19914;-70
2022/01/07 01:54:27;;;;;;;;;;;;;;;;;;5096266;28;20287;-69
2022/01/07 01:56:53;;;;;;;;;;;;;;;;;;5096307;28;20010;-71
2022/01/07 01:59:18;;;;;;;;;;;;;;;;;;5096295;28;20284;-70
2022/01/07 02:01:44;;;;;;;;;;;;;;;;;;5096080;28;19969;-69
2022/01/07 02:04:10;;;;;;;;;;;;;;;;;;5114556;28;19908;-70
2022/01/07 02:06:36;;;;;;;;;;;;;;;;;;5114231;28;19928;-69
2022/01/07 02:09:02;;;;;;;;;;;;;;;;;;5114354;28;19930;-70
2022/01/07 02:11:28;;;;;;;;;;;;;;;;;;5095925;28;20430;-69
2022/01/07 02:13:54;;;;;;;;;;;;;;;;;;5113832;28;19908;-70
2022/01/07 02:16:20;;;;;;;;;;;;;;;;;;5095274;28;19915;-70
2022/01/07 02:18:46;;;;;;;;;;;;;;;;;;5114071;28;19960;-70
2022/01/07 02:21:13;;;;;;;;;;;;;;;;;;5095735;28;20299;-70
2022/01/07 02:23:39;;;;;;;;;;;;;;;;;;5113825;28;19994;-71
2022/01/07 02:26:05;;;;;;;;;;;;;;;;;;5114208;28;20358;-71
2022/01/07 02:28:31;;;;;;;;;;;;;;;;;;5095564;28;19916;-69
2022/01/07 02:30:57;;;;;;;;;;;;;;;;;;5095607;28;20401;-70
2022/01/07 02:33:23;;;;;;;;;;;;;;;;;;5095246;28;20249;-71
2022/01/07 02:35:48;;;;;;;;;;;;;;;;;;5113637;28;19912;-71
2022/01/07 02:38:15;;;;;;;;;;;;;;;;;;5095420;28;19911;-70
2022/01/07 02:40:41;;;;;;;;;;;;;;;;;;5113777;28;19953;-72
2022/01/07 02:43:06;;;;;;;;;;;;;;;;;;5095425;28;19911;-71
2022/01/07 02:45:32;;;;;;;;;;;;;;;;;;5095386;28;19911;-70
2022/01/07 02:48:01;;;;;;;;;;;;;;;;;;5095465;28;19908;-71
2022/01/07 02:50:27;;;;;;;;;;;;;;;;;;5114349;28;19944;-70
2022/01/07 02:52:53;;;;;;;;;;;;;;;;;;5096009;28;20403;-70
2022/01/07 02:55:19;;;;;;;;;;;;;;;;;;5113898;28;19911;-70
2022/01/07 02:57:45;;;;;;;;;;;;;;;;;;5113555;28;19914;-69
2022/01/07 03:00:11;;;;;;;;;;;;;;;;;;5113443;28;19908;-69
2022/01/07 03:02:37;;;;;;;;;;;;;;;;;;5095022;28;19908;-70
2022/01/07 03:05:02;;;;;;;;;;;;;;;;;;5095275;28;19915;-70
2022/01/07 03:07:29;;;;;;;;;;;;;;;;;;5113427;28;20422;-70
2022/01/07 03:09:55;;;;;;;;;;;;;;;;;;5095053;28;19908;-70
2022/01/07 03:12:20;;;;;;;;;;;;;;;;;;5113160;28;19987;-70
2022/01/07 03:14:48;;;;;;;;;;;;;;;;;;5094667;28;20378;-67
2022/01/07 03:17:14;;;;;;;;;;;;;;;;;;5095018;28;20425;-69
2022/01/07 03:19:39;;;;;;;;;;;;;;;;;;5094915;28;19907;-70
2022/01/07 03:22:05;;;;;;;;;;;;;;;;;;5094678;28;19983;-70
2022/01/07 03:24:31;;;;;;;;;;;;;;;;;;5113175;28;19946;-70
2022/01/07 03:27:00;;;;;;;;;;;;;;;;;;5094819;28;20397;-70
2022/01/07 03:29:26;;;;;;;;;;;;;;;;;;5094598;28;19920;-70
2022/01/07 03:31:52;;;;;;;;;;;;;;;;;;5094504;28;20352;-70
2022/01/07 03:34:18;;;;;;;;;;;;;;;;;;5094689;28;19912;-69
2022/01/07 03:36:43;;;;;;;;;;;;;;;;;;5113204;28;19908;-70
2022/01/07 03:39:09;;;;;;;;;;;;;;;;;;5094727;28;19999;-69
2022/01/07 03:41:35;;;;;;;;;;;;;;;;;;5094668;28;20446;-69
2022/01/07 03:44:01;;;;;;;;;;;;;;;;;;5094538;28;20019;-70
2022/01/07 03:46:27;;;;;;;;;;;;;;;;;;5094642;28;19907;-69
2022/01/07 03:48:53;;;;;;;;;;;;;;;;;;5112672;28;19957;-69
2022/01/07 03:51:19;;;;;;;;;;;;;;;;;;5112864;28;19954;-69
2022/01/07 03:53:45;;;;;;;;;;;;;;;;;;5094311;28;19908;-69
2022/01/07 03:56:17;;;;;;;;;;;;;;;;;;5094547;28;19912;-70
2022/01/07 03:58:43;;;;;;;;;;;;;;;;;;5094522;28;19944;-70
2022/01/07 04:01:09;;;;;;;;;;;;;;;;;;5094288;28;19915;-70
2022/01/07 04:03:35;;;;;;;;;;;;;;;;;;5094407;28;19921;-70
2022/01/07 04:06:00;;;;;;;;;;;;;;;;;;5112834;28;20329;-69
2022/01/07 04:08:26;;;;;;;;;;;;;;;;;;5112700;28;19908;-70
2022/01/07 04:10:52;;;;;;;;;;;;;;;;;;5094326;28;19915;-70
2022/01/07 04:13:18;;;;;;;;;;;;;;;;;;5094471;28;20014;-70
2022/01/07 04:15:44;;;;;;;;;;;;;;;;;;5094634;28;20291;-70
2022/01/07 04:18:10;;;;;;;;;;;;;;;;;;5094670;28;19908;-70
2022/01/07 04:20:36;;;;;;;;;;;;;;;;;;5094454;28;20287;-70
2022/01/07 04:23:02;;;;;;;;;;;;;;;;;;5112404;28;19908;-70
2022/01/07 04:25:27;;;;;;;;;;;;;;;;;;5094271;28;19955;-70
2022/01/07 04:27:53;;;;;;;;;;;;;;;;;;5094075;28;19919;-69
2022/01/07 04:30:19;;;;;;;;;;;;;;;;;;5094455;28;20435;-70
2022/01/07 04:32:46;;;;;;;;;;;;;;;;;;5112159;28;19938;-69
2022/01/07 04:35:11;;;;;;;;;;;;;;;;;;5112555;28;19916;-70
2022/01/07 04:37:37;;;;;;;;;;;;;;;;;;5112524;28;19914;-70
2022/01/07 04:40:03;;;;;;;;;;;;;;;;;;5097638;28;19912;-70
2022/01/07 04:42:29;;;;;;;;;;;;;;;;;;5097750;28;19931;-70
2022/01/07 04:44:55;;;;;;;;;;;;;;;;;;5097763;28;19970;-70
2022/01/07 04:47:21;;;;;;;;;;;;;;;;;;5097768;28;19907;-70
2022/01/07 04:49:47;;;;;;;;;;;;;;;;;;5115972;28;19915;-70
2022/01/07 04:52:13;;;;;;;;;;;;;;;;;;5097287;28;20387;-69
2022/01/07 04:54:39;;;;;;;;;;;;;;;;;;5115474;28;19918;-69
2022/01/07 04:57:05;;;;;;;;;;;;;;;;;;5115620;28;19951;-70
2022/01/07 04:59:30;;;;;;;;;;;;;;;;;;5115708;28;19904;-69
2022/01/07 05:01:56;;;;;;;;;;;;;;;;;;5096958;28;20424;-68
2022/01/07 05:04:22;;;;;;;;;;;;;;;;;;5097078;28;19966;-68
2022/01/07 05:06:48;;;;;;;;;;;;;;;;;;5115395;28;19914;-69
2022/01/07 05:09:16;;;;;;;;;;;;;;;;;;5115295;28;19929;-67
2022/01/07 05:11:42;;;;;;;;;;;;;;;;;;5115130;28;20357;-69
2022/01/07 05:14:07;;;;;;;;;;;;;;;;;;5096800;28;19951;-70
2022/01/07 05:16:33;;;;;;;;;;;;;;;;;;5115040;28;19907;-69
2022/01/07 05:18:59;;;;;;;;;;;;;;;;;;5115313;28;19915;-68
2022/01/07 05:21:25;;;;;;;;;;;;;;;;;;5115199;28;19964;-69
2022/01/07 05:23:51;;;;;;;;;;;;;;;;;;5096684;28;19931;-69
2022/01/07 05:26:17;;;;;;;;;;;;;;;;;;5115028;28;19958;-69
2022/01/07 05:28:46;;;;;;;;;;;;;;;;;;5096510;28;19920;-70
2022/01/07 05:31:12;;;;;;;;;;;;;;;;;;5096581;28;19923;-69
2022/01/07 05:33:38;;;;;;;;;;;;;;;;;;5114612;28;19908;-69
2022/01/07 05:36:03;;;;;;;;;;;;;;;;;;5096376;28;19911;-69
2022/01/07 05:38:29;;;;;;;;;;;;;;;;;;5114963;28;19908;-69
2022/01/07 05:40:55;;;;;;;;;;;;;;;;;;5096389;28;19955;-67
2022/01/07 05:43:21;;;;;;;;;;;;;;;;;;5096082;28;20278;-67
2022/01/07 05:45:47;;;;;;;;;;;;;;;;;;5096143;28;19907;-68
2022/01/07 05:48:13;;;;;;;;;;;;;;;;;;5114408;28;20011;-68
2022/01/07 05:50:39;;;;;;;;;;;;;;;;;;5114994;28;19908;-68
2022/01/07 05:53:04;;;;;;;;;;;;;;;;;;5095624;28;19908;-67
2022/01/07 05:55:30;;;;;;;;;;;;;;;;;;5095903;28;20366;-68
2022/01/07 05:57:56;;;;;;;;;;;;;;;;;;5095981;28;19912;-68
2022/01/07 06:00:22;;;;;;;;;;;;;;;;;;5096011;28;19915;-69
2022/01/07 06:02:48;;;;;;;;;;;;;;;;;;5114091;28;19961;-68
2022/01/07 06:05:14;;;;;;;;;;;;;;;;;;5114240;28;19915;-69
2022/01/07 06:07:40;;;;;;;;;;;;;;;;;;5113511;28;20394;-68
2022/01/07 06:10:06;;;;;;;;;;;;;;;;;;5096008;28;19911;-67
2022/01/07 06:12:32;;;;;;;;;;;;;;;;;;5095750;28;19973;-68
2022/01/07 06:14:58;;;;;;;;;;;;;;;;;;5114086;28;19919;-69
2022/01/07 06:17:24;;;;;;;;;;;;;;;;;;5095946;28;19911;-69
2022/01/07 06:19:49;;;;;;;;;;;;;;;;;;5095629;28;19957;-69
2022/01/07 06:22:15;;;;;;;;;;;;;;;;;;5113758;28;19954;-69
2022/01/07 06:24:41;;;;;;;;;;;;;;;;;;5113723;28;20002;-69
2022/01/07 06:27:07;;;;;;;;;;;;;;;;;;5095571;28;19907;-69
2022/01/07 06:29:33;;;;;;;;;;;;;;;;;;5113635;28;19926;-69
2022/01/07 06:31:59;;;;;;;;;;;;;;;;;;5113426;28;19907;-69
2022/01/07 06:34:25;;;;;;;;;;;;;;;;;;5113722;28;19919;-69
2022/01/07 06:36:51;;;;;;;;;;;;;;;;;;5095393;28;20025;-69
2022/01/07 06:39:19;;;;;;;;;;;;;;;;;;5113572;28;19907;-68
2022/01/07 06:41:46;;;;;;;;;;;;;;;;;;5094842;28;19908;-69
2022/01/07 06:44:12;;;;;;;;;;;;;;;;;;5106459;28;19968;-68
2022/01/07 06:46:38;;;;;;;;;;;;;;;;;;5113273;28;20364;-69
2022/01/07 06:49:04;;;;;;;;;;;;;;;;;;5094978;28;20283;-69
2022/01/07 06:51:31;;;;;;;;;;;;;;;;;;5088652;28;19961;-66
2022/01/07 06:53:57;;;;;;;;;;;;;;;;;;5092957;28;19908;-68
2022/01/07 06:56:23;;;;;;;;;;;;;;;;;;5074557;28;19916;-68
2022/01/07 06:58:49;;;;;;;;;;;;;;;;;;5093432;28;20269;-68
2022/01/07 07:01:15;;;;;;;;;;;;;;;;;;5091432;28;20015;-68
2022/01/07 07:03:41;;;;;;;;;;;;;;;;;;5114402;28;19908;-68
2022/01/07 07:06:07;;;;;;;;;;;;;;;;;;5094953;28;19915;-69
2022/01/07 07:08:32;;;;;;;;;;;;;;;;;;5096175;28;19912;-68
2022/01/07 07:10:58;;;;;;;;;;;;;;;;;;5095218;28;19984;-68
2022/01/07 07:13:24;;;;;;;;;;;;;;;;;;5094542;28;19908;-68
2022/01/07 07:15:50;;;;;;;;;;;;;;;;;;5094732;28;19912;-67
2022/01/07 07:18:17;;;;;;;;;;;;;;;;;;5079463;28;19954;-68
2022/01/07 07:20:43;;;;;;;;;;;;;;;;;;5074753;28;19923;-66
2022/01/07 07:23:09;;;;;;;;;;;;;;;;;;5074653;28;19908;-68
2022/01/07 07:25:35;;;;;;;;;;;;;;;;;;5092598;28;19960;-67
2022/01/07 07:28:00;;;;;;;;;;;;;;;;;;5108290;22;19920;-62
2022/01/07 07:30:34;;;;;;;;;;;;;;;;;;5088066;28;20372;-66
2022/01/07 07:33:17;;;;;;;;;;;;;;;;;;5094406;28;19908;-65
2022/01/07 07:38:12;;;;;;;;;;;;;;;;;;5091376;28;20303;-67
2022/01/07 07:40:38;;;;;;;;;;;;;;;;;;5072420;28;20019;-66
2022/01/07 07:43:04;;;;;;;;;;;;;;;;;;5090579;28;19908;-67
2022/01/07 07:45:30;;;;;;;;;;;;;;;;;;5088365;28;20397;-66
2022/01/07 07:47:56;;;;;;;;;;;;;;;;;;5088285;28;19916;-65
2022/01/07 07:50:22;;;;;;;;;;;;;;;;;;5072798;28;20380;-64
2022/01/07 07:52:47;;;;;;;;;;;;;;;;;;5090558;28;19904;-65
2022/01/07 07:55:13;;;;;;;;;;;;;;;;;;5090482;28;20385;-65
2022/01/07 07:57:39;;;;;;;;;;;;;;;;;;5090658;28;19909;-66
2022/01/07 08:00:05;;;;;;;;;;;;;;;;;;5090753;28;19994;-66
2022/01/07 08:02:31;;;;;;;;;;;;;;;;;;5090583;28;20401;-66
2022/01/07 08:04:57;;;;;;;;;;;;;;;;;;5072638;28;19908;-66
2022/01/07 08:07:23;;;;;;;;;;;;;;;;;;5091451;28;19915;-68
2022/01/07 08:09:51;;;;;;;;;;;;;;;;;;5090689;28;20361;-69
2022/01/07 08:12:21;;;;;;;;;;;;;;;;;;5090425;28;19916;-67
2022/01/07 08:17:31;;;;;;;;;;;;;;;;;;5094549;28;19915;-66
2022/01/07 08:19:57;;;;;;;;;;;;;;;;;;5094269;28;19912;-67
2022/01/07 08:22:22;;;;;;;;;;;;;;;;;;5094275;28;19916;-67
2022/01/07 08:24:48;;;;;;;;;;;;;;;;;;5075872;28;20289;-68
2022/01/07 08:27:14;;;;;;;;;;;;;;;;;;5076164;28;19908;-66
2022/01/07 08:29:42;;;;;;;;;;;;;;;;;;5093792;28;19993;-67
2022/01/07 08:34:57;;;;;;;;;;;;;;;;;;5093949;28;20255;-67
2022/01/07 08:37:23;;;;;;;;;;;;;;;;;;5075962;28;19908;-67
2022/01/07 08:39:53;;;;;;;;;;;;;;;;;;5093851;28;19914;-66
2022/01/07 08:42:19;;;;;;;;;;;;;;;;;;5094173;28;19908;-65
2022/01/07 08:44:45;;;;;;;;;;;;;;;;;;5068477;28;19927;-66
2022/01/07 08:47:11;;;;;;;;;;;;;;;;;;5055455;28;19927;-66
2022/01/07 08:49:37;;;;;;;;;;;;;;;;;;5073741;28;19908;-66
2022/01/07 08:52:03;;;;;;;;;;;;;;;;;;5073302;28;20383;-68
2022/01/07 08:54:29;;;;;;;;;;;;;;;;;;5055458;28;19928;-66
2022/01/07 08:56:55;;;;;;;;;;;;;;;;;;5073676;28;19924;-66
2022/01/07 08:59:21;;;;;;;;;;;;;;;;;;5073531;28;20376;-66
2022/01/07 09:01:47;;;;;;;;;;;;;;;;;;5073245;28;20053;-66
2022/01/07 09:04:13;;;;;;;;;;;;;;;;;;5073079;28;19931;-66
2022/01/07 09:06:39;;;;;;;;;;;;;;;;;;5073389;28;20356;-66
2022/01/07 09:09:04;;;;;;;;;;;;;;;;;;5073214;28;20033;-66
2022/01/07 09:11:30;;;;;;;;;;;;;;;;;;5055352;28;19997;-66
2022/01/07 09:13:58;;;;;;;;;;;;;;;;;;5054822;28;20368;-66
2022/01/07 09:16:24;;;;;;;;;;;;;;;;;;5054727;28;19916;-66
2022/01/07 09:18:50;;;;;;;;;;;;;;;;;;5073103;28;20295;-70
2022/01/07 09:21:16;;;;;;;;;;;;;;;;;;5055109;28;19905;-68
2022/01/07 09:23:42;;;;;;;;;;;;;;;;;;5072568;28;19916;-67
2022/01/07 09:26:08;;;;;;;;;;;;;;;;;;5073081;28;20004;-66
2022/01/07 09:28:34;;;;;;;;;;;;;;;;;;5072843;28;20025;-68
2022/01/07 09:31:00;;;;;;;;;;;;;;;;;;5072734;28;19905;-68
2022/01/07 09:33:26;;;;;;;;;;;;;;;;;;5054676;28;20360;-65
2022/01/07 09:35:51;;;;;;;;;;;;;;;;;;5072595;28;19995;-68
2022/01/07 09:38:17;;;;;;;;;;;;;;;;;;5070953;28;20380;-68
2022/01/07 09:40:43;;;;;;;;;;;;;;;;;;5071098;28;20368;-68
2022/01/07 09:43:09;;;;;;;;;;;;;;;;;;5070864;28;20057;-67
2022/01/07 09:45:35;;;;;;;;;;;;;;;;;;5053212;28;19913;-68
2022/01/07 09:48:01;;;;;;;;;;;;;;;;;;5071093;28;19908;-68
2022/01/07 09:50:27;;;;;;;;;;;;;;;;;;5071387;28;19908;-66
2022/01/07 09:52:53;;;;;;;;;;;;;;;;;;5054119;28;20502;-67
2022/01/07 09:55:19;;;;;;;;;;;;;;;;;;5072327;28;20364;-67
2022/01/07 09:57:45;;;;;;;;;;;;;;;;;;5072404;28;19909;-67
2022/01/07 10:00:11;;;;;;;;;;;;;;;;;;5071865;28;19971;-67
2022/01/07 10:02:37;;;;;;;;;;;;;;;;;;5089263;28;19912;-68
2022/01/07 10:05:03;;;;;;;;;;;;;;;;;;5085782;28;19939;-68
2022/01/07 10:07:29;;;;;;;;;;;;;;;;;;5112867;28;19933;-67
2022/01/07 10:09:55;;;;;;;;;;;;;;;;;;5090929;28;19912;-67
2022/01/07 10:12:20;;;;;;;;;;;;;;;;;;5100753;28;19914;-68
2022/01/07 10:14:46;;;;;;;;;;;;;;;;;;5095207;28;20607;-66
2022/01/07 10:17:12;;;;;;;;;;;;;;;;;;5084734;28;19916;-67
2022/01/07 10:19:38;;;;;;;;;;;;;;;;;;5098719;28;20363;-68
2022/01/07 10:22:04;;;;;;;;;;;;;;;;;;5111977;28;20362;-68
2022/01/07 10:24:30;;;;;;;;;;;;;;;;;;5093951;28;19915;-67
2022/01/07 10:26:56;;;;;;;;;;;;;;;;;;5105294;28;20427;-66
2022/01/07 10:29:22;;;;;;;;;;;;;;;;;;5092181;28;19933;-70
2022/01/07 10:31:47;;;;;;;;;;;;;;;;;;5092026;28;19999;-69
2022/01/07 10:34:13;;;;;;;;;;;;;;;;;;5073726;28;19915;-70
2022/01/07 10:36:39;;;;;;;;;;;;;;;;;;5091543;28;20261;-68
2022/01/07 10:39:07;;;;;;;;;;;;;;;;;;5092038;28;19987;-69
2022/01/07 10:41:33;;;;;;;;;;;;;;;;;;5073454;28;20003;-69
2022/01/07 10:43:58;;;;;;;;;;;;;;;;;;5091865;28;19954;-69
2022/01/07 10:46:26;;;;;;;;;;;;;;;;;;5092120;28;19908;-69
2022/01/07 10:48:53;;;;;;;;;;;;;;;;;;5094070;28;19955;-70
2022/01/07 10:51:19;;;;;;;;;;;;;;;;;;5073528;28;20428;-68
2022/01/07 10:53:45;;;;;;;;;;;;;;;;;;5091880;28;19939;-69
2022/01/07 10:56:11;;;;;;;;;;;;;;;;;;5091967;28;20391;-69
2022/01/07 10:58:37;;;;;;;;;;;;;;;;;;5090990;28;20405;-67
2022/01/07 11:01:03;;;;;;;;;;;;;;;;;;5073399;28;19958;-68
2022/01/07 11:03:29;;;;;;;;;;;;;;;;;;5083702;28;19909;-69
2022/01/07 11:05:55;;;;;;;;;;;;;;;;;;5071475;28;19915;-69
2022/01/07 11:08:21;;;;;;;;;;;;;;;;;;5059455;28;19909;-69
2022/01/07 11:10:47;;;;;;;;;;;;;;;;;;5071298;28;19999;-69
2022/01/07 11:13:12;;;;;;;;;;;10.60;96.10;;;;;;5071126;28;19908;-69
2022/01/07 11:15:38;;;;;;;;;;;4.40;99.90;;;;;;5071335;28;19951;-66
2022/01/07 11:18:03;;;;;;;;;;;4.30;99.90;;;;;;5053326;28;20219;-69
2022/01/07 11:20:29;;;;;;;;;;;4.30;99.90;;;;;;5101052;28;19908;-69
2022/01/07 11:22:54;;;;;;;;;;;4.30;99.90;;;;;;5111819;28;19951;-68
2022/01/07 11:25:29;;;;;;;;;;;4.40;99.90;;;;;;5093431;28;20018;-69
2022/01/07 11:27:57;;;;;;;;;;;4.40;99.90;;;;;;5078375;28;20017;-67
2022/01/07 11:30:28;;;;;;;;;;;4.40;99.90;;;;;;5111877;28;19969;-69
2022/01/07 11:32:54;;;;;;;;;;;4.50;99.90;;;;;;5118294;28;19973;-69
2022/01/07 11:35:20;;;;;;;;;;;4.50;99.90;;;;;;5110572;28;20359;-69
2022/01/07 11:37:45;;;;;;;;;;;4.50;99.90;;;;;;5093747;28;19930;-69
2022/01/07 11:40:33;;;;;;;;;;;4.50;99.90;;;;;;5111682;28;19908;-67
2022/01/07 11:42:59;;;;;;;;;;;;;;;;;;5111272;28;20006;-67
2022/01/07 11:45:27;;;;;;;;;;;;;;;;;;5067460;28;19996;-68
2022/01/07 11:47:53;;;;;;;;;;;;;;;;;;5073168;28;19908;-67
2022/01/07 11:50:18;;;;;;;;;;;;;;;;;;5074644;28;19999;-68
2022/01/07 11:52:44;;;;;;;;;;;;;;;;;;5074856;28;19916;-65
2022/01/07 11:55:10;;;;;;;;;;;;;;;;;;5074606;28;19913;-65
2022/01/07 11:57:36;;;;;;;;;;;;;;;;;;5074744;28;19991;-67
2022/01/07 12:00:02;;;;;;;;;;;;;;;;;;5056633;28;20253;-66
2022/01/07 12:02:28;;;;;;;;;;;;;;;;;;5056292;28;19912;-66
2022/01/07 12:04:54;;;;;;;;;;;;;;;;;;5056709;28;19985;-68
2022/01/07 12:07:20;;;;;;;;;;;;;;;;;;5074561;28;19944;-69
2022/01/07 12:09:45;;;;;;;;;;;;;;;;;;5074352;28;20309;-71
2022/01/07 12:12:11;;;;;;;;;;;;;;;;;;5056635;28;19958;-70
2022/01/07 12:14:37;;;;;;;;;;;;;;;;;;5056774;28;19931;-69
2022/01/07 12:17:03;;;;;;;;;;;;;;;;;;5075028;28;19916;-69
2022/01/07 12:19:29;;;;;;;;;;;;;;;;;;5074573;28;19908;-69
2022/01/07 12:21:55;;;;;;;;;;;;;;;;;;5056057;28;20279;-69
2022/01/07 12:24:21;;;;;;;;;;;;;;;;;;5056692;28;19955;-69
2022/01/07 12:26:47;;;;;;;;;;;;;;;;;;5081288;28;20340;-69
2022/01/07 12:29:13;;;;;;;;;;;;;;;;;;5075311;28;19927;-69
2022/01/07 12:31:38;;;;;;;;;;;;;;;;;;5094391;28;19912;-69
2022/01/07 12:34:04;;;;;;;;;;;;;;;;;;5095020;28;19912;-70
2022/01/07 12:36:30;;;;;;;;;;;;;;;;;;5094182;28;19922;-68
2022/01/07 12:38:56;;;;;;;;;;;;;;;;;;5075867;28;19912;-68
2022/01/07 12:41:22;;;;;;;;;;;;;;;;;;5094320;28;19904;-66
2022/01/07 12:43:48;;;;;;;;;;;;;;;;;;5094499;28;19918;-68
2022/01/07 12:46:17;;;;;;;;;;;;;;;;;;5076235;28;20258;-68
2022/01/07 12:48:43;;;;;;;;;;;;;;;;;;5076608;28;20318;-68
2022/01/07 12:51:09;;;;;;;;;;;;;;;;;;5093987;28;19916;-70
2022/01/07 12:53:35;;;;;;;;;;;;;;;;;;5075761;28;19927;-69
2022/01/07 12:56:01;;;;;;;;;;;;;;;;;;5093814;28;19973;-69
2022/01/07 12:58:27;;;;;;;;;;;;;;;;;;5093640;28;19912;-69
2022/01/07 13:00:53;;;;;;;;;;;;;;;;;;5078039;28;20003;-69
2022/01/07 13:03:19;;;;;;;;;;;;;;;;;;5098089;28;20432;-67
2022/01/07 13:05:46;;;;;;;;;;;;;;;;;;5104499;28;19912;-69
2022/01/07 13:08:12;;;;;;;;;;;;;;;;;;5097078;28;20283;-70
2022/01/07 13:10:38;;;;;;;;;;;;;;;;;;5109167;28;20015;-68
2022/01/07 13:13:04;;;;;;;;;;;;;;;;;;5079878;28;19942;-66
2022/01/07 13:15:29;;;;;;;;;;;;;;;;;;5078813;28;19923;-68
2022/01/07 13:17:55;;;;;;;;;;;;;;;;;;5089179;28;19912;-68
2022/01/07 13:20:21;;;;;;;;;;;;;;;;;;5098762;28;20307;-68
2022/01/07 13:22:47;;;;;;;;;;;;;;;;;;5098718;28;19912;-67
2022/01/07 13:25:13;;;;;;;;;;;;;;;;;;5090356;28;20331;-69
2022/01/07 13:27:39;;;;;;;;;;;;;;;;;;5085995;28;19915;-69
2022/01/07 13:30:05;;;;;;;;;;;;;;;;;;5121711;22;19928;-70
2022/01/07 13:32:31;;;;;;;;;;;;;;;;;;5089566;28;20387;-70
2022/01/07 13:34:57;;;;;;;;;;;;;;;;;;5106369;28;20014;-69
2022/01/07 13:37:23;;;;;;;;;;;;;;;;;;5087691;28;20326;-69
2022/01/07 13:39:49;;;;;;;;;;;4.60;99.90;;;;;;5089113;28;19919;-69
2022/01/07 13:42:26;;;;;;;;;;;5.90;99.90;;;;;;5104207;28;19956;-69
2022/01/07 13:44:51;;;;;;;;;;;;;;;;;;5084853;28;19912;-69
2022/01/07 13:47:17;;;;;;;;;;;;;;;;;;5104324;28;19908;-69
2022/01/07 13:49:43;;;;;;;;;;;;;;;;;;5103884;28;20320;-69
2022/01/07 13:52:09;;;;;;;;;;;;;;;;;;5106530;28;19908;-68
2022/01/07 13:54:36;;;;;;;;;;;6.00;99.90;;;;;;5115054;28;20383;-68
2022/01/07 13:57:04;;;;;;;;;;;7.20;99.90;;;;;;5096892;28;19908;-69
2022/01/07 13:59:30;;;;;;;;;;;;;;;;;;5096734;28;19947;-69
2022/01/07 14:01:56;;;;;;;;;;;;;;;;;;5107330;28;19923;-70
2022/01/07 14:04:22;;;;;;;;;;;;;;;;;;5104943;28;19908;-69
2022/01/07 14:06:48;;;;;;;;;;;;;;;;;;5106496;28;19915;-69
2022/01/07 14:09:14;;;;;;;;;;;;;;;;;;5078687;28;19988;-69
2022/01/07 14:11:40;;;;;;;;;;;;;;;;;;5107408;28;19943;-68
2022/01/07 14:14:05;;;;;;;;;;;;;;;;;;5100691;28;20008;-68
2022/01/07 14:16:31;;;;;;;;;;;;;;;;;;5087831;28;19913;-68
2022/01/07 14:18:58;;;;;;;;;;;;;;;;;;5086034;28;19907;-69
2022/01/07 14:21:23;;;;;;;;;;;;;;;;;;5086409;28;20071;-69
2022/01/07 14:23:49;;;;;;;;;;;;;;;;;;5087664;28;19953;-69
2022/01/07 14:26:17;;;;;;;;;;;;;;;;;;5096426;28;19914;-69
2022/01/07 14:28:43;;;;;;;;;;;;;;;;;;4718972;28;9999588;-71
2022/01/07 14:31:08;;;;;;;;;;;;;;;;;;5081924;28;19924;-69
2022/01/07 14:33:35;;;;;;;;;;;;;;;;;;5079146;28;20269;-69
2022/01/07 14:36:00;;;;;;;;;;;;;;;;;;5074034;28;20376;-69
2022/01/07 14:38:26;;;;;;;;;;;;;;;;;;5086701;28;19915;-70
2022/01/07 14:40:52;;;;;;;;;;;;;;;;;;5092864;28;19912;-69
2022/01/07 14:43:18;;;;;;;;;;;;;;;;;;5092814;28;19912;-69
2022/01/07 14:45:44;;;;;;;;;;;;;;;;;;5085335;28;20483;-70
2022/01/07 14:48:10;;;;;;;;;;;;;;;;;;5083404;28;19969;-67
2022/01/07 14:50:36;;;;;;;;;;;;;;;;;;5091205;28;19930;-70
2022/01/07 14:53:02;;;;;;;;;;;;;;;;;;5077654;28;20361;-70
2022/01/07 14:55:34;;;;;;;;;;;;;;;;;;5091248;28;19927;-68
2022/01/07 14:58:00;;;;;;;;;;;;;;;;;;5070791;28;20284;-68
2022/01/07 15:00:25;;;;;;;;;;;;;;;;;;5072052;28;19909;-69
2022/01/07 15:02:51;;;;;;;;;;;;;;;;;;5088927;28;19912;-69
2022/01/07 15:05:17;;;;;;;;;;;;;;;;;;5092778;28;19950;-70
2022/01/07 15:07:43;;;;;;;;;;;;;;;;;;5092710;28;20380;-70
2022/01/07 15:10:09;;;;;;;;;;;;;;;;;;5074079;28;19999;-70
2022/01/07 15:12:39;;;;;;;;;;;;;;;;;;5092259;28;19922;-69
2022/01/07 15:17:49;;;;;;;;;;;;;;;;;;5090797;28;19919;-71
2022/01/07 15:20:15;;;;;;;;;;;;;;;;;;5072439;28;19912;-70
2022/01/07 15:22:41;;;;;;;;;;;;;;;;;;5071574;28;19916;-70
2022/01/07 15:25:06;;;;;;;;;;;;;;;;;;5067798;28;19951;-69
2022/01/07 15:27:32;;;;;;;;;;;;;;;;;;5058855;28;19914;-69
2022/01/07 15:29:58;;;;;;;;;;;;;;;;;;5073243;28;19923;-69
2022/01/07 15:32:24;;;;;;;;;;;;;;;;;;5091739;28;19915;-69
2022/01/07 15:34:50;;;;;;;;;;;;;;;;;;5088165;28;20453;-68
2022/01/07 15:37:16;;;;;;;;;;;;;;;;;;5071612;28;19912;-69
2022/01/07 15:39:43;;;;;;;;;;;;;;;;;;5068489;28;19919;-67
2022/01/07 15:42:09;;;;;;;;;;;;;;;;;;5067149;28;19959;-69
2022/01/07 15:44:35;;;;;;;;;;;;;;;;;;5076126;28;19956;-68
2022/01/07 15:47:01;;;;;;;;;;;;;;;;;;5083872;28;20421;-69
2022/01/07 15:49:30;;;;;;;;;;;;;;;;;;5082124;28;19908;-68
2022/01/07 15:51:56;;;;;;;;;;;;;;;;;;5100082;28;20323;-68
2022/01/07 15:54:22;;;;;;;;;;;;;;;;;;5086449;28;20000;-68
2022/01/07 15:56:48;;;;;;;;;;;;;;;;;;5100682;28;19908;-69
2022/01/07 15:59:14;;;;;;;;;;;;;;;;;;5083869;28;19908;-69
2022/01/07 16:01:39;;;;;;;;;;;;;;;;;;5086392;28;19912;-68
2022/01/07 16:04:05;;;;;;;;;;;;;;;;;;5093794;28;19915;-68
2022/01/07 16:06:31;;;;;;;;;;;;;;;;;;5112028;28;19912;-69
2022/01/07 16:08:57;;;;;;;;;;;;;;;;;;5111915;28;20335;-69
2022/01/07 16:11:23;;;;;;;;;;;;;;;;;;5092084;28;19918;-68
2022/01/07 16:13:49;;;;;;;;;;;;;;;;;;5060329;28;20012;-71
2022/01/07 16:16:15;;;;;;;;;;;;;;;;;;5071521;28;19966;-68
2022/01/07 16:18:41;;;;;;;;;;;;;;;;;;5087123;28;20375;-68
2022/01/07 16:21:07;;;;;;;;;;;;;;;;;;5085033;28;19909;-69
2022/01/07 16:23:33;;;;;;;;;;;;;;;;;;5070950;28;19931;-68
2022/01/07 16:25:59;;;;;;;;;;;;;;;;;;5061868;28;19909;-68
2022/01/07 16:28:25;;;;;;;;;;;;;;;;;;5059760;28;20265;-70
2022/01/07 16:30:51;;;;;;;;;;;;;;;;;;5070707;28;20364;-68
2022/01/07 16:33:17;;;;;;;;;;;;;;;;;;5070031;28;19916;-67
2022/01/07 16:35:43;;;;;;;;;;;;;;;;;;5072587;28;19913;-70
2022/01/07 16:38:09;;;;;;;;;;;;;;;;;;5054939;28;19915;-70
2022/01/07 16:40:35;;;;;;;;;;;;;;;;;;5053920;28;19916;-70